Time;durP1;ratioP1;P1;durP2;ratioP2;P2;SDS_P1;SDS_P2;PMS_P1;PMS_P2;Temp;Humidity;BMP_temperature;BMP_pressure;BME280_temperature;BME280_humidity;BME280_pressure;Samples;Min_cycle;Max_cycle;Signal;HPM_P1;HPM_P2
2023/09/10 00:00:25;;;;;;;9.27;7.78;;;;;;;;;;4999832;28;20202;-70
2023/09/10 00:02:52;;;;;;;13.27;8.10;;;;;;;;;;5001499;28;20227;-70
2023/09/10 00:05:18;;;;;;;10.23;9.07;;;;;;;;;;5003017;28;20226;-70
2023/09/10 00:07:46;;;;;;;11.60;8.23;;;;;;;;;;5002625;28;20202;-70
2023/09/10 00:10:12;;;;;;;12.32;9.00;;;;;;;;;;4999854;28;20261;-70
2023/09/10 00:12:39;;;;;;;14.20;9.85;;;;;;;;;;4999725;28;20668;-70
2023/09/10 00:15:05;;;;;;;9.40;7.68;;;;;;;;;;5002497;28;20246;-70
2023/09/10 00:17:33;;;;;;;10.52;8.95;;;;;;;;;;5003476;28;20206;-70
2023/09/10 00:19:59;;;;;;;11.07;8.45;;;;;;;;;;5000836;28;20585;-70
2023/09/10 00:22:25;;;;;;;14.02;8.57;;;;;;;;;;4999618;28;20211;-70
2023/09/10 00:24:53;;;;;;;10.98;8.23;;;;;;;;;;5000502;28;20659;-70
2023/09/10 00:27:19;;;;;;;14.25;8.52;;;;;;;;;;5005222;28;20198;-70
2023/09/10 00:29:45;;;;;;;13.15;9.07;;;;;;;;;;5006069;28;20214;-70
2023/09/10 00:32:11;;;;;;;12.20;8.18;;;;;;;;;;5003455;28;20202;-70
2023/09/10 00:34:38;;;;;;;10.90;8.30;;;;;;;;;;5003554;28;20203;-71
2023/09/10 00:37:04;;;;;;;9.18;7.85;;;;;;;;;;5006431;28;20202;-71
2023/09/10 00:39:31;;;;;;;14.75;8.32;;;;;;;;;;5006483;28;20210;-71
2023/09/10 00:41:58;;;;;;;10.77;8.38;;;;;;;;;;5004590;28;20206;-71
2023/09/10 00:44:24;;;;;;;9.18;7.97;;;;;;;;;;5002798;28;20222;-71
2023/09/10 00:46:50;;;;;;;13.80;8.02;;;;;;;;;;5003451;28;20211;-71
2023/09/10 00:49:17;;;;;;;13.27;8.68;;;;;;;;;;5006497;28;20205;-71
2023/09/10 00:51:43;;;;;;;8.88;8.02;;;;;;;;;;5006075;28;20576;-71
2023/09/10 00:54:10;;;;;;;10.82;8.90;;;;;;;;;;5002761;28;20202;-71
2023/09/10 00:56:36;;;;;;;12.95;8.40;;;;;;;;;;5002425;28;20226;-71
2023/09/10 00:59:04;;;;;;;9.95;8.50;;;;;;;;;;5004983;28;20537;-71
2023/09/10 01:01:30;;;;;;;16.52;8.48;;;;;;;;;;5006217;28;20241;-71
2023/09/10 01:03:56;;;;;;;9.90;8.02;;;;;;;;;;5004381;28;20214;-71
2023/09/10 01:06:22;;;;;;;15.05;8.50;;;;;;;;;;5002143;28;20717;-70
2023/09/10 01:08:49;;;;;;;12.07;8.45;;;;;;;;;;5002870;28;20211;-70
2023/09/10 01:11:20;;;;;;;10.10;8.57;;;;;;;;;;5005716;28;20693;-70
2023/09/10 01:13:50;;;;;;;9.63;8.30;;;;;;;;;;5005844;28;20667;-70
2023/09/10 01:16:18;;;;;;;12.63;8.63;;;;;;;;;;4994908;28;20226;-70
2023/09/10 01:18:47;;;;;;;10.55;8.40;;;;;;;;;;5002375;28;20199;-70
2023/09/10 01:21:31;;;;;;;11.88;7.97;;;;;;;;;;4994410;28;20230;-70
2023/09/10 01:24:03;;;;;;;8.82;7.93;;;;;;;;;;5003274;28;20609;-70
2023/09/10 01:26:31;;;;;;;9.40;8.23;;;;;;;;;;5005219;28;20226;-70
2023/09/10 01:28:57;;;;;;;9.65;8.75;;;;;;;;;;5004121;28;20210;-70
2023/09/10 01:31:23;;;;;;;11.13;8.43;;;;;;;;;;5002078;28;20669;-70
2023/09/10 01:33:52;;;;;;;9.90;8.48;;;;;;;;;;5002258;28;20217;-70
2023/09/10 01:36:24;;;;;;;11.45;8.77;;;;;;;;;;5004931;28;20218;-70
2023/09/10 01:38:52;;;;;;;9.80;8.65;;;;;;;;;;5005189;28;20206;-70
2023/09/10 01:41:20;;;;;;;12.63;9.32;;;;;;;;;;5002127;28;20206;-70
2023/09/10 01:43:49;;;;;;;10.52;9.45;;;;;;;;;;5001701;28;20227;-70
2023/09/10 01:46:16;;;;;;;12.85;9.40;;;;;;;;;;4993731;28;20219;-70
2023/09/10 01:48:43;;;;;;;14.75;9.18;;;;;;;;;;5001858;28;20218;-70
2023/09/10 01:51:10;;;;;;;10.93;8.85;;;;;;;;;;5004376;28;20215;-70
2023/09/10 01:53:37;;;;;;;10.35;8.85;;;;;;;;;;5004949;28;20576;-70
2023/09/10 01:56:03;;;;;;;10.27;8.13;;;;;;;;;;5002834;28;20226;-70
2023/09/10 01:58:29;;;;;;;10.32;8.20;;;;;;;;;;5001516;28;20624;-70
2023/09/10 02:00:57;;;;;;;11.45;8.57;;;;;;;;;;5002227;28;20203;-70
2023/09/10 02:03:23;;;;;;;13.20;8.23;;;;;;;;;;5004688;28;20228;-70
2023/09/10 02:05:49;;;;;;;10.40;8.45;;;;;;;;;;5004723;28;20577;-70
2023/09/10 02:08:16;;;;;;;10.88;8.50;;;;;;;;;;5001587;28;20206;-70
2023/09/10 02:10:42;;;;;;;10.05;8.23;;;;;;;;;;5001473;28;20218;-70
2023/09/10 02:13:08;;;;;;;12.48;8.57;;;;;;;;;;5003602;28;20199;-70
2023/09/10 02:15:34;;;;;;;11.88;8.32;;;;;;;;;;5004385;28;20225;-70
2023/09/10 02:18:02;;;;;;;9.55;8.32;;;;;;;;;;5003382;28;20202;-70
2023/09/10 02:20:28;;;;;;;15.20;8.23;;;;;;;;;;5001572;28;20290;-70
2023/09/10 02:22:55;;;;;;;10.85;8.55;;;;;;;;;;5001819;28;20657;-70
2023/09/10 02:25:21;;;;;;;10.23;8.48;;;;;;;;;;5005656;28;20222;-70
2023/09/10 02:27:47;;;;;;;10.82;9.23;;;;;;;;;;5004557;28;20203;-70
2023/09/10 02:30:13;;;;;;;10.77;8.05;;;;;;;;;;5001681;28;20211;-70
2023/09/10 02:32:40;;;;;;;16.60;8.13;;;;;;;;;;5000937;28;20203;-70
2023/09/10 02:35:08;;;;;;;9.15;7.68;;;;;;;;;;5002319;28;20350;-70
2023/09/10 02:37:34;;;;;;;9.15;8.25;;;;;;;;;;5004190;28;20198;-70
2023/09/10 02:40:00;;;;;;;9.05;8.10;;;;;;;;;;5003451;28;20199;-70
2023/09/10 02:42:27;;;;;;;12.15;8.15;;;;;;;;;;5000946;28;20211;-70
2023/09/10 02:44:53;;;;;;;9.55;7.75;;;;;;;;;;5000539;28;20310;-70
2023/09/10 02:47:19;;;;;;;11.85;8.38;;;;;;;;;;5000970;28;20211;-71
2023/09/10 02:49:45;;;;;;;11.40;8.10;;;;;;;;;;5000324;28;20663;-70
2023/09/10 02:52:13;;;;;;;9.05;8.30;;;;;;;;;;5002811;28;20412;-70
2023/09/10 02:54:39;;;;;;;11.27;8.15;;;;;;;;;;5004221;28;20198;-70
2023/09/10 02:57:06;;;;;;;13.77;8.88;;;;;;;;;;5002943;28;20202;-70
2023/09/10 02:59:32;;;;;;;9.07;7.85;;;;;;;;;;5000630;28;20286;-70
2023/09/10 03:01:59;;;;;;;8.75;7.95;;;;;;;;;;5000650;28;20206;-70
2023/09/10 03:04:25;;;;;;;10.82;8.30;;;;;;;;;;5003551;28;20698;-70
2023/09/10 03:06:51;;;;;;;8.25;7.55;;;;;;;;;;5003775;28;20221;-70
2023/09/10 03:09:19;;;;;;;9.73;7.85;;;;;;;;;;5001030;28;20207;-70
2023/09/10 03:11:46;;;;;;;10.85;8.43;;;;;;;;;;5000436;28;20214;-70
2023/09/10 03:14:12;;;;;;;10.88;8.05;;;;;;;;;;5002190;28;20203;-70
2023/09/10 03:16:39;;;;;;;12.23;7.60;;;;;;;;;;5003612;28;20229;-70
2023/09/10 03:19:05;;;;;;;8.57;7.78;;;;;;;;;;5002746;28;20230;-70
2023/09/10 03:21:32;;;;;;;8.05;7.25;;;;;;;;;;5000560;28;20203;-70
2023/09/10 03:23:58;;;;;;;8.63;7.45;;;;;;;;;;5000399;28;20326;-70
2023/09/10 03:26:26;;;;;;;12.02;7.63;;;;;;;;;;4992106;28;20225;-70
2023/09/10 03:28:52;;;;;;;10.35;8.10;;;;;;;;;;5000090;28;20238;-70
2023/09/10 03:31:18;;;;;;;13.27;8.23;;;;;;;;;;5002588;28;20694;-70
2023/09/10 03:33:45;;;;;;;11.18;7.45;;;;;;;;;;5003796;28;20218;-70
2023/09/10 03:36:11;;;;;;;9.15;7.10;;;;;;;;;;5001616;28;20225;-70
2023/09/10 03:38:37;;;;;;;12.35;7.40;;;;;;;;;;5000221;28;20203;-70
2023/09/10 03:41:03;;;;;;;9.52;7.78;;;;;;;;;;5000366;28;20571;-70
2023/09/10 03:43:31;;;;;;;10.35;7.35;;;;;;;;;;5003318;28;20206;-70
2023/09/10 03:45:57;;;;;;;7.93;7.15;;;;;;;;;;5003238;28;20226;-70
2023/09/10 03:48:24;;;;;;;10.88;7.63;;;;;;;;;;5000483;28;20222;-70
2023/09/10 03:50:50;;;;;;;14.05;8.10;;;;;;;;;;5000072;28;20207;-70
2023/09/10 03:53:17;;;;;;;8.65;7.53;;;;;;;;;;5002085;28;20207;-70
2023/09/10 03:55:44;;;;;;;10.57;8.00;;;;;;;;;;5003047;28;20218;-70
2023/09/10 03:58:10;;;;;;;10.00;7.75;;;;;;;;;;5002083;28;20199;-70
2023/09/10 04:00:38;;;;;;;12.38;7.90;;;;;;;;;;5001274;28;20230;-70
2023/09/10 04:03:05;;;;;;;9.15;7.95;;;;;;;;;;5003940;28;20676;-70
2023/09/10 04:05:31;;;;;;;8.60;7.70;;;;;;;;;;5006764;28;20252;-70
2023/09/10 04:07:58;;;;;;;12.10;7.82;;;;;;;;;;5007214;28;20543;-71
2023/09/10 04:10:26;;;;;;;11.27;7.90;;;;;;;;;;5004180;28;20195;-71
2023/09/10 04:12:52;;;;;;;9.93;8.07;;;;;;;;;;5003512;28;20203;-71
2023/09/10 04:15:19;;;;;;;9.07;8.18;;;;;;;;;;5005369;28;20219;-70
2023/09/10 04:17:46;;;;;;;8.27;7.20;;;;;;;;;;5006997;28;20201;-70
2023/09/10 04:20:13;;;;;;;10.65;8.18;;;;;;;;;;5005632;28;20202;-70
2023/09/10 04:22:39;;;;;;;10.75;7.85;;;;;;;;;;5003357;28;20234;-70
2023/09/10 04:25:06;;;;;;;9.43;7.20;;;;;;;;;;5002852;28;20600;-70
2023/09/10 04:27:32;;;;;;;8.73;7.72;;;;;;;;;;5006884;28;20207;-70
2023/09/10 04:29:59;;;;;;;9.85;7.40;;;;;;;;;;5006751;28;20195;-70
2023/09/10 04:32:25;;;;;;;13.98;8.00;;;;;;;;;;5003639;28;20210;-68
2023/09/10 04:34:53;;;;;;;14.68;7.35;;;;;;;;;;5003064;28;20222;-68
2023/09/10 04:37:19;;;;;;;8.60;7.80;;;;;;;;;;5004992;28;20207;-68
2023/09/10 04:39:45;;;;;;;11.23;7.70;;;;;;;;;;5006407;28;20213;-68
2023/09/10 04:42:11;;;;;;;8.85;7.85;;;;;;;;;;5005748;28;20202;-68
2023/09/10 04:44:38;;;;;;;10.43;8.07;;;;;;;;;;5003104;28;20215;-68
2023/09/10 04:47:04;;;;;;;10.38;7.32;;;;;;;;;;5003172;28;20213;-68
2023/09/10 04:49:30;;;;;;;9.45;7.82;;;;;;;;;;5003240;28;20459;-68
2023/09/10 04:51:58;;;;;;;13.75;8.23;;;;;;;;;;5003029;28;20210;-68
2023/09/10 04:54:24;;;;;;;9.13;7.95;;;;;;;;;;5005013;28;20213;-68
2023/09/10 04:56:53;;;;;;;11.93;7.82;;;;;;;;;;5006004;28;20576;-68
2023/09/10 04:59:20;;;;;;;8.70;7.80;;;;;;;;;;5004674;28;20206;-68
2023/09/10 05:01:46;;;;;;;11.48;8.02;;;;;;;;;;5002871;28;20203;-68
2023/09/10 05:04:12;;;;;;;11.90;8.45;;;;;;;;;;5003349;28;20609;-68
2023/09/10 05:06:38;;;;;;;9.85;8.32;;;;;;;;;;5005627;28;20245;-68
2023/09/10 05:09:08;;;;;;;10.13;8.15;;;;;;;;;;5006258;28;20211;-68
2023/09/10 05:11:34;;;;;;;11.82;7.90;;;;;;;;;;4994766;28;20211;-68
2023/09/10 05:14:00;;;;;;;9.48;7.93;;;;;;;;;;5002260;28;20214;-68
2023/09/10 05:16:26;;;;;;;8.15;7.38;;;;;;;;;;5004474;28;20223;-68
2023/09/10 05:18:53;;;;;;;8.77;7.72;;;;;;;;;;5005716;28;20202;-68
2023/09/10 05:21:20;;;;;;;8.18;7.28;;;;;;;;;;5004049;28;20207;-68
2023/09/10 05:23:46;;;;;;;8.98;8.18;;;;;;;;;;5002274;28;20570;-68
2023/09/10 05:26:13;;;;;;;10.45;7.90;;;;;;;;;;5002367;28;20219;-68
2023/09/10 05:28:40;;;;;;;9.60;7.85;;;;;;;;;;5005629;28;20206;-68
2023/09/10 05:31:07;;;;;;;9.13;7.65;;;;;;;;;;5005559;28;20260;-68
2023/09/10 05:33:34;;;;;;;8.98;8.07;;;;;;;;;;5002288;28;20199;-68
2023/09/10 05:36:00;;;;;;;9.25;8.23;;;;;;;;;;5001632;28;20843;-68
2023/09/10 05:38:26;;;;;;;8.45;7.57;;;;;;;;;;5004193;28;20207;-68
2023/09/10 05:40:53;;;;;;;9.35;8.18;;;;;;;;;;5005562;28;20198;-68
2023/09/10 05:43:20;;;;;;;10.82;8.13;;;;;;;;;;5004572;28;20655;-68
2023/09/10 05:45:47;;;;;;;11.23;8.50;;;;;;;;;;5001494;28;20644;-68
2023/09/10 05:48:13;;;;;;;13.20;7.93;;;;;;;;;;5001884;28;20214;-68
2023/09/10 05:50:40;;;;;;;9.27;8.23;;;;;;;;;;5005167;28;20249;-68
2023/09/10 05:53:06;;;;;;;9.93;8.55;;;;;;;;;;5013590;28;20233;-68
2023/09/10 05:55:32;;;;;;;8.65;7.93;;;;;;;;;;5002085;28;20237;-68
2023/09/10 05:57:59;;;;;;;10.65;8.35;;;;;;;;;;5001723;28;20203;-68
2023/09/10 06:00:26;;;;;;;12.65;8.35;;;;;;;;;;5003255;28;20207;-68
2023/09/10 06:02:52;;;;;;;11.38;8.38;;;;;;;;;;5005068;28;20202;-68
2023/09/10 06:05:19;;;;;;;10.20;7.90;;;;;;;;;;5003484;28;20230;-68
2023/09/10 06:07:45;;;;;;;10.50;9.23;;;;;;;;;;5001462;28;20206;-68
2023/09/10 06:10:11;;;;;;;14.50;8.57;;;;;;;;;;5001763;28;20205;-68
2023/09/10 06:12:37;;;;;;;12.82;9.60;;;;;;;;;;5004535;28;20202;-68
2023/09/10 06:15:04;;;;;;;16.55;9.77;;;;;;;;;;5004535;28;20222;-68
2023/09/10 06:17:32;;;;;;;10.98;9.63;;;;;;;;;;5002364;28;20289;-68
2023/09/10 06:19:58;;;;;;;10.32;8.65;;;;;;;;;;5001087;28;20210;-68
2023/09/10 06:22:24;;;;;;;16.27;9.52;;;;;;;;;;5002284;28;20211;-68
2023/09/10 06:24:51;;;;;;;15.82;9.98;;;;;;;;;;5003250;28;20733;-68
2023/09/10 06:27:17;;;;;;;16.00;9.70;;;;;;;;;;5004249;28;20204;-68
2023/09/10 06:29:43;;;;;;;10.23;9.20;;;;;;;;;;5001151;28;20199;-68
2023/09/10 06:32:09;;;;;;;13.05;9.07;;;;;;;;;;5001158;28;20615;-68
2023/09/10 06:34:37;;;;;;;14.00;10.45;;;;;;;;;;5003721;28;20203;-68
2023/09/10 06:37:04;;;;;;;13.77;10.48;;;;;;;;;;5004343;28;20210;-68
2023/09/10 06:39:30;;;;;;;13.35;10.77;;;;;;;;;;5002665;28;20203;-68
2023/09/10 06:41:56;;;;;;;11.35;10.25;;;;;;;;;;5000909;28;20205;-68
2023/09/10 06:44:22;;;;;;;15.70;12.55;;;;;;;;;;5001366;28;20563;-68
2023/09/10 06:46:49;;;;;;;13.57;11.57;;;;;;;;;;5003801;28;20222;-68
2023/09/10 06:49:15;;;;;;;12.48;10.10;;;;;;;;;;5004376;28;20206;-68
2023/09/10 06:51:43;;;;;;;11.48;10.27;;;;;;;;;;5001015;28;20254;-68
2023/09/10 06:54:09;;;;;;;15.93;11.05;;;;;;;;;;5000818;28;20200;-68
2023/09/10 06:56:35;;;;;;;15.15;10.90;;;;;;;;;;5002526;28;20227;-68
2023/09/10 06:59:01;;;;;;;14.20;11.10;;;;;;;;;;5004028;28;20206;-68
2023/09/10 07:01:27;;;;;;;13.27;11.00;;;;;;;;;;5002670;28;20674;-68
2023/09/10 07:03:55;;;;;;;13.70;11.18;;;;;;;;;;5000825;28;20200;-68
2023/09/10 07:06:21;;;;;;;15.57;10.88;;;;;;;;;;5000413;28;20226;-68
2023/09/10 07:08:49;;;;;;;14.48;11.20;;;;;;;;;;5004314;28;20497;-68
2023/09/10 07:11:15;;;;;;;13.30;11.27;;;;;;;;;;5003756;28;20203;-68
2023/09/10 07:13:41;;;;;;;17.20;10.43;;;;;;;;;;5000836;28;20652;-68
2023/09/10 07:16:07;;;;;;;14.98;10.60;;;;;;;;;;5000065;28;20219;-68
2023/09/10 07:18:34;;;;;;;13.13;10.32;;;;;;;;;;5002081;28;20206;-67
2023/09/10 07:21:00;;;;;;;13.70;10.30;;;;;;;;;;4989903;28;20217;-65
2023/09/10 07:23:27;;;;;;;11.50;9.82;;;;;;;;;;4994635;28;20211;-65
2023/09/10 07:25:55;;;;;;;15.10;11.05;;;;;;;;;;4994877;28;20301;-66
2023/09/10 07:28:21;;;;;;;14.52;11.10;;;;;;;;;;4998059;28;20270;-66
2023/09/10 07:30:47;;;;;;;12.40;11.23;;;;;;;;;;4986688;28;20556;-66
2023/09/10 07:33:14;;;;;;;15.68;11.35;;;;;;;;;;4994565;28;20215;-67
2023/09/10 07:35:40;;;;;;;11.48;10.38;;;;;;;;;;4998233;28;20222;-66
2023/09/10 07:38:06;;;;;;;15.55;10.35;;;;;;;;;;4996112;28;20203;-67
2023/09/10 07:40:32;;;;;;;12.43;11.20;;;;;;;;;;5001021;28;20437;-70
2023/09/10 07:43:02;;;;;;;15.05;11.20;;;;;;;;;;5003901;28;20663;-70
2023/09/10 07:45:28;;;;;;;14.35;10.40;;;;;;;;;;5004531;28;20313;-70
2023/09/10 07:47:56;;;;;;;13.15;10.40;;;;;;;;;;5007797;28;20202;-70
2023/09/10 07:50:23;;;;;;;15.52;10.52;;;;;;;;;;5007617;28;20202;-70
2023/09/10 07:52:49;;;;;;;13.88;10.80;;;;;;;;;;5004002;28;20211;-70
2023/09/10 07:55:15;;;;;;;11.95;10.63;;;;;;;;;;5003901;28;20219;-70
2023/09/10 07:57:41;;;;;;;13.73;10.25;;;;;;;;;;5006109;28;20663;-70
2023/09/10 08:00:10;;;;;;;11.38;9.55;;;;;;;;;;5007256;28;20690;-70
2023/09/10 08:02:36;;;;;;;12.05;9.32;;;;;;;;;;5007401;28;20198;-70
2023/09/10 08:05:04;;;;;;;17.42;10.05;;;;;;;;;;5007169;28;20225;-70
2023/09/10 08:07:30;;;;;;;14.93;10.00;;;;;;;;;;5006669;28;20210;-70
2023/09/10 08:09:56;;;;;;;14.85;9.98;;;;;;;;;;5003842;28;20206;-70
2023/09/10 08:12:22;;;;;;;16.63;9.88;;;;;;;;;;5003558;28;20207;-70
2023/09/10 08:14:49;;;;;;;12.00;9.70;;;;;;;;;;5006242;28;20702;-70
2023/09/10 08:17:16;;;;;;;11.35;9.65;;;;;;;;;;5006717;28;20210;-70
2023/09/10 08:19:43;;;;;;;11.07;9.75;;;;;;;;;;5005037;28;20202;-70
2023/09/10 08:22:09;;;;;;;11.68;9.38;;;;;;;;;;5003373;28;20755;-70
2023/09/10 08:24:35;;;;;;;11.23;9.55;;;;;;;;;;5004082;28;20589;-70
2023/09/10 08:27:02;;;;;;;13.98;9.57;;;;;;;;;;5006700;28;20222;-70
2023/09/10 08:29:29;;;;;;;11.60;9.38;;;;;;;;;;5006794;28;20205;-70
2023/09/10 08:31:55;;;;;;;10.82;9.65;;;;;;;;;;5003362;28;20601;-70
2023/09/10 08:34:23;;;;;;;13.95;9.65;;;;;;;;;;5003210;28;20233;-71
2023/09/10 08:36:49;;;;;;;11.20;8.52;;;;;;;;;;5005520;28;20225;-71
2023/09/10 08:39:15;;;;;;;12.70;9.05;;;;;;;;;;5006482;28;20224;-70
2023/09/10 08:41:47;;;;;;;16.23;9.60;;;;;;;;;;5004978;28;20238;-70
2023/09/10 08:44:17;;;;;;;13.70;9.35;;;;;;;;;;5008911;28;20666;-70
2023/09/10 08:46:44;;;;;;;11.57;8.27;;;;;;;;;;5003546;28;20416;-70
2023/09/10 08:49:11;;;;;;;12.38;9.00;;;;;;;;;;5002878;28;20202;-70
2023/09/10 08:51:39;;;;;;;13.02;8.90;;;;;;;;;;5003836;28;20283;-70
2023/09/10 08:54:06;;;;;;;11.07;8.18;;;;;;;;;;5006153;28;20260;-70
2023/09/10 08:56:32;;;;;;;11.15;8.82;;;;;;;;;;5005561;28;20225;-71
2023/09/10 08:58:59;;;;;;;11.82;8.63;;;;;;;;;;5002662;28;20671;-70
2023/09/10 09:01:25;;;;;;;13.88;8.77;;;;;;;;;;5002942;28;20206;-70
2023/09/10 09:03:51;;;;;;;15.57;9.07;;;;;;;;;;5005349;28;20654;-70
2023/09/10 09:06:18;;;;;;;13.88;8.23;;;;;;;;;;5005538;28;20218;-70
2023/09/10 09:08:48;;;;;;;9.20;8.30;;;;;;;;;;5004319;28;20201;-70
2023/09/10 09:11:15;;;;;;;13.85;8.40;;;;;;;;;;5002571;28;20207;-70
2023/09/10 09:13:43;;;;;;;13.00;7.68;;;;;;;;;;5003786;28;20202;-70
2023/09/10 09:16:10;;;;;;;11.80;8.23;;;;;;;;;;5005588;28;20218;-70
2023/09/10 09:18:37;;;;;;;9.75;7.80;;;;;;;;;;5005643;28;20205;-71
2023/09/10 09:21:06;;;;;;;14.77;7.75;;;;;;;;;;5005671;28;20285;-72
2023/09/10 09:23:33;;;;;;;15.63;8.30;;;;;;;;;;5007127;28;20202;-72
2023/09/10 09:26:02;;;;;;;8.90;7.85;;;;;;;;;;4993971;28;20223;-71
2023/09/10 09:28:29;;;;;;;11.82;7.53;;;;;;;;;;5002408;28;20405;-71
2023/09/10 09:30:55;;;;;;;11.68;7.78;;;;;;;;;;5004927;28;20194;-71
2023/09/10 09:33:21;;;;;;;13.07;7.85;;;;;;;;;;5005557;28;20211;-71
2023/09/10 09:35:47;;;;;;;12.38;7.80;;;;;;;;;;5003130;28;20222;-71
2023/09/10 09:38:14;;;;;;;12.35;8.18;;;;;;;;;;5002247;28;20210;-71
2023/09/10 09:40:40;;;;;;;9.95;7.70;;;;;;;;;;4999188;28;20202;-72
2023/09/10 09:43:08;;;;;;;9.30;7.43;;;;;;;;;;5002818;28;20202;-72
2023/09/10 09:45:35;;;;;;;13.48;8.32;;;;;;;;;;5001939;28;20324;-72
2023/09/10 09:48:01;;;;;;;13.95;8.10;;;;;;;;;;4987418;28;20206;-72
2023/09/10 09:50:28;;;;;;;9.82;7.90;;;;;;;;;;5001856;28;20205;-72
2023/09/10 09:52:55;;;;;;;9.95;7.75;;;;;;;;;;5004053;28;20582;-72
2023/09/10 09:55:21;;;;;;;10.68;7.55;;;;;;;;;;5004896;28;20225;-72
2023/09/10 09:57:48;;;;;;;15.70;7.35;;;;;;;;;;5003516;28;20202;-72
2023/09/10 10:00:17;;;;;;;9.30;7.07;;;;;;;;;;5001576;28;20207;-72
2023/09/10 10:02:43;;;;;;;8.77;7.65;;;;;;;;;;5002254;28;20203;-72
2023/09/10 10:05:10;;;;;;;12.23;8.07;;;;;;;;;;5004808;28;20222;-72
2023/09/10 10:07:36;;;;;;;11.38;8.23;;;;;;;;;;5005005;28;20222;-72
2023/09/10 10:10:05;;;;;;;16.98;7.38;;;;;;;;;;5001674;28;20235;-72
2023/09/10 10:12:32;;;;;;;9.82;7.75;;;;;;;;;;5001466;28;20199;-72
2023/09/10 10:14:58;;;;;;;13.30;7.60;;;;;;;;;;5003632;28;20226;-72
2023/09/10 10:17:26;;;;;;;8.05;7.25;;;;;;;;;;5004806;28;20209;-72
2023/09/10 10:19:53;;;;;;;8.95;7.47;;;;;;;;;;5002726;28;20615;-72
2023/09/10 10:22:20;;;;;;;12.02;7.47;;;;;;;;;;5001272;28;20203;-72
2023/09/10 10:24:46;;;;;;;8.68;6.90;;;;;;;;;;5001919;28;20233;-72
2023/09/10 10:27:13;;;;;;;11.23;7.07;;;;;;;;;;5004250;28;20214;-72
2023/09/10 10:29:40;;;;;;;10.77;7.07;;;;;;;;;;5004457;28;20198;-72
2023/09/10 10:32:10;;;;;;;9.05;6.95;;;;;;;;;;4993107;28;20702;-72
2023/09/10 10:34:38;;;;;;;11.68;6.80;;;;;;;;;;5000982;28;20210;-72
2023/09/10 10:37:11;;;;;;;10.73;6.93;;;;;;;;;;5004171;28;20616;-72
2023/09/10 10:39:39;;;;;;;8.63;6.80;;;;;;;;;;5004544;28;20209;-72
2023/09/10 10:42:06;;;;;;;11.20;7.13;;;;;;;;;;5001104;28;20203;-72
2023/09/10 10:44:34;;;;;;;9.82;7.32;;;;;;;;;;5000650;28;20588;-70
2023/09/10 10:47:02;;;;;;;11.77;7.50;;;;;;;;;;5000574;28;20223;-72
2023/09/10 10:49:29;;;;;;;9.38;7.18;;;;;;;;;;4984008;28;20210;-72
2023/09/10 10:52:00;;;;;;;8.57;6.22;;;;;;;;;;4971062;28;20233;-72
2023/09/10 10:54:27;;;;;;;9.40;6.00;;;;;;;;;;4972730;28;20215;-72
2023/09/10 10:56:53;;;;;;;8.70;6.10;;;;;;;;;;4969404;28;20226;-72
2023/09/10 10:59:20;;;;;;;11.32;5.47;;;;;;;;;;4969984;28;20214;-72
2023/09/10 11:02:08;;;;;;;9.02;6.20;;;;;;;;;;4970085;28;20593;-73
2023/09/10 11:04:34;;;;;;;6.78;6.10;;;;;;;;;;4982681;28;20211;-73
2023/09/10 11:07:18;;;;;;;9.23;6.22;;;;;;;;;;4971247;28;20230;-73
2023/09/10 11:09:46;;;;;;;7.95;5.72;;;;;;;;;;4969429;28;20216;-73
2023/09/10 11:12:12;;;;;;;7.70;5.70;;;;;;;;;;4969908;28;20211;-72
2023/09/10 11:14:58;;;;;;;12.13;6.20;;;;;;;;;;4969747;28;20856;-73
2023/09/10 11:17:24;;;;;;;8.75;5.70;;;;;;;;;;4969801;28;20215;-72
2023/09/10 11:19:51;;;;;;;7.18;5.25;;;;;;;;;;4977576;28;20211;-73
2023/09/10 11:22:18;;;;;;;6.93;5.15;;;;;;;;;;4970002;28;20219;-72
2023/09/10 11:24:45;;;;;;;8.48;5.38;;;;;;;;;;4970252;28;20241;-72
2023/09/10 11:27:21;;;;;;;9.82;5.60;;;;;;;;;;4970422;28;20223;-72
2023/09/10 11:30:02;;;;;;;6.07;5.28;;;;;;;;;;4972241;28;20238;-72
2023/09/10 11:32:29;;;;;;;6.65;4.90;;;;;;;;;;4973065;28;20218;-72
2023/09/10 11:35:17;;;;;;;7.28;5.22;;;;;;;;;;4969904;28;20231;-74
2023/09/10 11:37:46;;;;;;;7.68;5.03;;;;;;;;;;4970014;28;20218;-72
2023/09/10 11:40:13;;;;;;;5.05;4.65;;;;;;;;;;4969904;28;20214;-71
2023/09/10 11:42:39;;;;;;;9.07;4.97;;;;;;;;;;4982474;28;20206;-73
2023/09/10 11:45:06;;;;;;;8.15;5.50;;;;;;;;;;4970056;28;20234;-73
2023/09/10 11:47:33;;;;;;;12.40;5.18;;;;;;;;;;4969347;28;20234;-72
2023/09/10 11:50:00;;;;;;;8.30;5.88;;;;;;;;;;4977564;28;20218;-72
2023/09/10 11:52:26;;;;;;;5.47;4.93;;;;;;;;;;4969411;28;20246;-74
2023/09/10 11:54:54;;;;;;;5.65;4.93;;;;;;;;;;4969028;28;20227;-75
2023/09/10 11:57:21;;;;;;;6.35;4.55;;;;;;;;;;4969418;28;20243;-74
2023/09/10 11:59:49;;;;;;;7.97;4.40;;;;;;;;;;4969977;28;20259;-73
2023/09/10 12:02:16;;;;;;;6.47;4.30;;;;;;;;;;4977866;28;20606;-73
2023/09/10 12:04:42;;;;;;;6.03;4.53;;;;;;;;;;4970093;28;20220;-73
2023/09/10 12:07:08;;;;;;;5.95;4.50;;;;;;;;;;4969224;28;20223;-73
2023/09/10 12:09:34;;;;;;;8.95;5.18;;;;;;;;;;4969429;28;20207;-72
2023/09/10 12:12:04;;;;;;;5.75;4.90;;;;;;;;;;4968934;28;20215;-72
2023/09/10 12:14:30;;;;;;;6.72;4.63;;;;;;;;;;4969630;28;20668;-71
2023/09/10 12:16:56;;;;;;;8.93;4.82;;;;;;;;;;4988933;28;20222;-71
2023/09/10 12:19:23;;;;;;;4.93;4.03;;;;;;;;;;5000032;28;20198;-71
2023/09/10 12:21:50;;;;;;;10.75;4.95;;;;;;;;;;5001411;28;20213;-71
2023/09/10 12:24:17;;;;;;;7.22;4.70;;;;;;;;;;4995663;28;20209;-72
2023/09/10 12:26:44;;;;;;;12.70;5.28;;;;;;;;;;5003165;28;20222;-71
2023/09/10 12:29:12;;;;;;;7.95;4.00;;;;;;;;;;5005539;28;20216;-71
2023/09/10 12:31:38;;;;;;;7.07;4.90;;;;;;;;;;5005590;28;20209;-71
2023/09/10 12:34:04;;;;;;;14.75;4.18;;;;;;;;;;5004795;28;20201;-71
2023/09/10 12:36:31;;;;;;;5.70;5.03;;;;;;;;;;5008073;28;20229;-71
2023/09/10 12:38:57;;;;;;;8.57;4.47;;;;;;;;;;5005719;28;20640;-71
2023/09/10 12:41:23;;;;;;;8.52;4.40;;;;;;;;;;5003158;28;20238;-71
2023/09/10 12:43:50;;;;;;;5.10;4.63;;;;;;;;;;5003284;28;20663;-71
2023/09/10 12:46:18;;;;;;;10.57;4.68;;;;;;;;;;5011038;28;20233;-71
2023/09/10 12:48:45;;;;;;;9.68;5.00;;;;;;;;;;5003283;28;20211;-71
2023/09/10 12:51:11;;;;;;;7.38;4.25;;;;;;;;;;5006022;28;20226;-71
2023/09/10 12:53:38;;;;;;;7.40;4.50;;;;;;;;;;5006399;28;20205;-72
2023/09/10 12:56:06;;;;;;;6.95;4.75;;;;;;;;;;5004738;28;20233;-71
2023/09/10 12:58:32;;;;;;;7.30;4.72;;;;;;;;;;5003159;28;20202;-71
2023/09/10 13:00:59;;;;;;;5.35;4.28;;;;;;;;;;5003476;28;20202;-71
2023/09/10 13:03:28;;;;;;;8.23;4.78;;;;;;;;;;5006328;28;20205;-71
2023/09/10 13:05:54;;;;;;;8.80;4.43;;;;;;;;;;5005698;28;20224;-71
2023/09/10 13:08:21;;;;;;;6.00;4.82;;;;;;;;;;4994630;28;20241;-71
2023/09/10 13:10:47;;;;;;;5.25;4.68;;;;;;;;;;5002941;28;20231;-71
2023/09/10 13:13:13;;;;;;;9.50;4.55;;;;;;;;;;5004889;28;20699;-71
2023/09/10 13:15:39;;;;;;;16.40;4.97;;;;;;;;;;5005648;28;20706;-71
2023/09/10 13:18:06;;;;;;;9.60;4.80;;;;;;;;;;4997894;28;20199;-71
2023/09/10 13:20:33;;;;;;;8.00;4.65;;;;;;;;;;5005825;28;20210;-71
2023/09/10 13:23:00;;;;;;;5.32;4.53;;;;;;;;;;5005373;28;20209;-71
2023/09/10 13:25:26;;;;;;;6.70;4.47;;;;;;;;;;5002011;28;20730;-71
2023/09/10 13:27:52;;;;;;;8.48;4.57;;;;;;;;;;5002462;28;20598;-71
2023/09/10 13:30:18;;;;;;;8.07;4.60;;;;;;;;;;5002390;28;20601;-71
2023/09/10 13:32:45;;;;;;;6.75;4.65;;;;;;;;;;5002056;28;20203;-71
2023/09/10 13:35:11;;;;;;;6.07;4.40;;;;;;;;;;5002184;28;20225;-71
2023/09/10 13:37:39;;;;;;;6.25;4.55;;;;;;;;;;5002423;28;20199;-71
2023/09/10 13:40:06;;;;;;;8.48;4.68;;;;;;;;;;5003134;28;20309;-71
2023/09/10 13:42:32;;;;;;;4.78;4.28;;;;;;;;;;5005459;28;20668;-71
2023/09/10 13:44:58;;;;;;;6.18;4.80;;;;;;;;;;5005387;28;20600;-71
2023/09/10 13:47:24;;;;;;;7.63;4.70;;;;;;;;;;4995003;28;20214;-71
2023/09/10 13:49:51;;;;;;;10.15;4.60;;;;;;;;;;5002542;28;20199;-71
2023/09/10 13:52:17;;;;;;;5.75;4.20;;;;;;;;;;5004451;28;20207;-71
2023/09/10 13:54:44;;;;;;;4.97;4.18;;;;;;;;;;5005322;28;20209;-71
2023/09/10 13:57:11;;;;;;;9.38;5.00;;;;;;;;;;5003449;28;20270;-71
2023/09/10 13:59:37;;;;;;;4.65;4.10;;;;;;;;;;5002332;28;20206;-71
2023/09/10 14:02:03;;;;;;;10.32;4.50;;;;;;;;;;5002096;28;20202;-71
2023/09/10 14:04:29;;;;;;;11.02;4.93;;;;;;;;;;5004904;28;20206;-72
2023/09/10 14:06:56;;;;;;;9.48;4.70;;;;;;;;;;5004849;28;20218;-72
2023/09/10 14:09:22;;;;;;;5.35;4.60;;;;;;;;;;5002151;28;20194;-72
2023/09/10 14:11:50;;;;;;;10.80;4.63;;;;;;;;;;5001699;28;20209;-71
2023/09/10 14:14:16;;;;;;;6.28;4.60;;;;;;;;;;5003361;28;20234;-71
2023/09/10 14:16:42;;;;;;;5.15;4.45;;;;;;;;;;5004706;28;20218;-71
2023/09/10 14:19:09;;;;;;;9.95;4.78;;;;;;;;;;5003636;28;20225;-71
2023/09/10 14:21:38;;;;;;;5.05;4.45;;;;;;;;;;5001468;28;20206;-71
2023/09/10 14:24:04;;;;;;;9.73;4.45;;;;;;;;;;5001724;28;20199;-71
2023/09/10 14:26:31;;;;;;;4.72;4.50;;;;;;;;;;5004572;28;20217;-71
2023/09/10 14:28:58;;;;;;;8.20;4.45;;;;;;;;;;5004659;28;20220;-71
2023/09/10 14:31:24;;;;;;;6.65;4.68;;;;;;;;;;5001511;28;20205;-71